Time;durP1;ratioP1;P1;durP2;ratioP2;P2;SDS_P1;SDS_P2;PMS_P1;PMS_P2;Temp;Humidity;BMP_temperature;BMP_pressure;BME280_temperature;BME280_humidity;BME280_pressure;Samples;Min_cycle;Max_cycle;Signal;HPM_P1;HPM_P2
2021/03/18 00:00:42;;;;;;;2.10;0.50;;;;;;;25.08;37.37;99004.44;5094601;28;20210;-64
2021/03/18 00:03:08;;;;;;;0.90;0.68;;;;;;;25.04;37.84;99006.59;5094089;28;20232;-63
2021/03/18 00:05:34;;;;;;;2.20;0.60;;;;;;;25.05;38.18;99000.28;5094420;28;20683;-64
2021/03/18 00:08:02;;;;;;;1.27;0.45;;;;;;;25.00;37.67;98999.09;5093958;28;20222;-64
2021/03/18 00:10:28;;;;;;;0.80;0.43;;;;;;;25.01;37.42;98998.91;5094087;28;20202;-64
2021/03/18 00:12:54;;;;;;;0.70;0.45;;;;;;;25.02;37.34;98997.09;5094634;28;20234;-63
2021/03/18 00:15:21;;;;;;;0.82;0.50;;;;;;;24.98;37.76;98985.88;5093874;28;20206;-65
2021/03/18 00:17:47;;;;;;;1.92;0.77;;;;;;;24.99;37.70;98997.41;5093735;28;20304;-64
2021/03/18 00:20:15;;;;;;;1.58;0.55;;;;;;;25.07;38.02;98990.25;5094102;28;20240;-64
2021/03/18 00:22:43;;;;;;;1.08;0.52;;;;;;;25.05;37.93;98994.09;5093952;28;20339;-64
2021/03/18 00:25:13;;;;;;;1.17;0.68;;;;;;;25.04;37.76;98992.41;5093836;28;20546;-62
2021/03/18 00:27:39;;;;;;;1.58;0.60;;;;;;;24.94;38.18;98995.22;5093984;28;20218;-61
2021/03/18 00:30:07;;;;;;;0.70;0.60;;;;;;;24.93;38.30;98997.06;5094196;28;20234;-63
2021/03/18 00:32:35;;;;;;;2.92;0.50;;;;;;;24.88;38.04;98987.84;5093703;28;20313;-63
2021/03/18 00:35:02;;;;;;;2.83;0.50;;;;;;;24.83;37.85;98985.66;5094293;28;20237;-62
2021/03/18 00:37:28;;;;;;;2.08;0.73;;;;;;;24.84;37.63;98989.19;5093779;28;20229;-63
2021/03/18 00:39:55;;;;;;;1.10;0.73;;;;;;;24.78;37.53;98989.81;5093700;28;20224;-63
2021/03/18 00:42:22;;;;;;;1.23;0.40;;;;;;;24.88;38.42;98990.50;5094005;28;20529;-64
2021/03/18 00:44:49;;;;;;;0.63;0.43;;;;;;;24.75;37.64;98989.16;5093740;28;20341;-64
2021/03/18 00:47:15;;;;;;;1.50;0.98;;;;;;;24.82;37.81;98983.16;5093356;28;20357;-64
2021/03/18 00:49:41;;;;;;;1.10;0.63;;;;;;;24.80;37.52;98980.66;5093909;28;20205;-62
2021/03/18 00:52:07;;;;;;;2.78;0.60;;;;;;;24.71;37.96;98968.22;5093310;28;20229;-65
2021/03/18 00:54:33;;;;;;;1.40;0.60;;;;;;;24.64;37.67;98976.06;5093269;28;20228;-64
2021/03/18 00:56:59;;;;;;;0.70;0.47;;;;;;;24.65;37.96;98966.22;5093270;28;20657;-60
2021/03/18 00:59:26;;;;;;;1.67;0.80;;;;;;;24.60;38.41;98968.53;5093209;28;20681;-64
2021/03/18 01:01:52;;;;;;;0.50;0.47;;;;;;;24.67;38.68;98973.06;5093366;28;20205;-65
2021/03/18 01:04:18;;;;;;;1.05;0.60;;;;;;;24.53;38.01;98976.31;5092069;28;20220;-63
2021/03/18 01:06:45;;;;;;;2.03;0.70;;;;;;;24.53;38.08;98970.97;5092821;28;20618;-64
2021/03/18 01:09:12;;;;;;;0.68;0.50;;;;;;;24.51;38.38;98972.97;5092790;28;20202;-63
2021/03/18 01:11:39;;;;;;;0.47;0.47;;;;;;;24.44;38.96;98971.94;5093181;28;20201;-61
2021/03/18 01:14:07;;;;;;;1.70;0.60;;;;;;;24.51;38.72;98967.63;5093225;28;20262;-60
2021/03/18 01:16:40;;;;;;;1.13;0.50;;;;;;;24.45;38.67;98969.13;5092968;28;20202;-64
2021/03/18 01:19:08;;;;;;;0.50;0.50;;;;;;;24.40;38.52;98966.09;5092653;28;20194;-63
2021/03/18 01:21:38;;;;;;;1.33;0.50;;;;;;;24.36;38.10;98970.91;5092676;28;20198;-64
2021/03/18 01:24:06;;;;;;;1.75;0.63;;;;;;;24.30;38.02;98970.72;5092533;28;20202;-63
2021/03/18 01:26:32;;;;;;;1.45;0.50;;;;;;;24.32;39.10;98969.53;5093078;28;20202;-64
2021/03/18 01:28:58;;;;;;;1.08;0.50;;;;;;;24.33;38.10;98965.88;5092810;28;20614;-61
2021/03/18 01:31:24;;;;;;;2.15;0.90;;;;;;;24.24;38.45;98972.19;5092446;28;20292;-62
2021/03/18 01:33:51;;;;;;;1.55;0.55;;;;;;;24.30;38.27;98968.88;5092362;28;20304;-63
2021/03/18 01:36:18;;;;;;;0.63;0.60;;;;;;;24.19;38.71;98963.81;5093100;28;20206;-65
2021/03/18 01:38:45;;;;;;;0.95;0.65;;;;;;;24.19;37.98;98964.63;5092279;28;20255;-62
2021/03/18 01:41:12;;;;;;;1.35;0.60;;;;;;;24.14;38.68;98955.44;5092591;28;20212;-62
2021/03/18 01:43:39;;;;;;;1.45;0.32;;;;;;;24.19;38.57;98961.13;5092496;28;20263;-64
2021/03/18 01:46:06;;;;;;;2.35;0.70;;;;;;;24.15;38.73;98955.28;5092382;28;20186;-63
2021/03/18 01:48:33;;;;;;;0.80;0.50;;;;;;;24.16;38.83;98964.13;5092481;28;20276;-62
2021/03/18 01:51:01;;;;;;;0.77;0.43;;;;;;;24.19;38.92;98953.94;5092768;28;20232;-59
2021/03/18 01:53:28;;;;;;;3.05;0.57;;;;;;;24.09;39.26;98957.75;5092409;28;20305;-63
2021/03/18 01:55:56;;;;;;;0.85;0.45;;;;;;;24.07;38.26;98954.41;5092440;28;20198;-63
2021/03/18 01:58:23;;;;;;;0.85;0.45;;;;;;;24.10;39.15;98954.06;5091754;28;20222;-62
2021/03/18 02:00:51;;;;;;;0.60;0.60;;;;;;;24.09;39.21;98949.72;5092128;28;20214;-63
2021/03/18 02:03:17;;;;;;;3.10;0.70;;;;;;;23.97;39.30;98958.00;5092024;28;20234;-60
2021/03/18 02:05:46;;;;;;;0.50;0.50;;;;;;;23.95;38.98;98954.66;5092284;28;20259;-63
2021/03/18 02:08:13;;;;;;;0.68;0.40;;;;;;;23.99;38.21;98953.34;5092492;28;20819;-62
2021/03/18 02:10:39;;;;;;;1.15;0.80;;;;;;;23.95;38.22;98954.66;5091977;28;20202;-62
2021/03/18 02:13:07;;;;;;;0.77;0.57;;;;;;;24.00;38.79;98954.19;5092026;28;20225;-62
2021/03/18 02:15:36;;;;;;;1.15;0.50;;;;;;;23.94;38.17;98942.28;5091871;28;20209;-63
2021/03/18 02:18:08;;;;;;;1.55;0.60;;;;;;;23.86;38.41;98950.25;5091622;28;20245;-64
2021/03/18 02:21:11;;;;;;;1.25;0.60;;;;;;;23.88;38.84;98955.44;5091886;28;20622;-63
2021/03/18 02:24:17;;;;;;;1.75;0.55;;;;;;;23.84;38.98;98944.22;5091946;28;20193;-59
2021/03/18 02:27:34;;;;;;;1.45;0.75;;;;;;;23.87;38.30;98953.78;5092121;28;20204;-64
2021/03/18 02:30:36;;;;;;;0.70;0.43;;;;;;;23.79;39.17;98959.84;5091452;28;20190;-64
2021/03/18 02:33:36;;;;;;;1.55;0.77;;;;;;;23.75;39.08;98956.66;5091237;28;20709;-62
2021/03/18 02:36:06;;;;;;;0.60;0.40;;;;;;;23.77;38.80;98961.84;5091664;28;20256;-63
2021/03/18 02:38:34;;;;;;;1.15;0.68;;;;;;;23.72;38.37;98956.97;5091890;28;20287;-62
2021/03/18 02:41:03;;;;;;;0.75;0.50;;;;;;;23.74;38.64;98967.50;5092002;28;20228;-63
2021/03/18 02:43:34;;;;;;;1.33;0.60;;;;;;;23.70;39.35;98963.44;5091044;28;20533;-63
2021/03/18 02:46:02;;;;;;;1.58;0.43;;;;;;;23.61;39.73;98960.72;5092161;28;20352;-64
2021/03/18 02:48:31;;;;;;;1.15;0.60;;;;;;;23.64;39.06;98965.75;5091242;28;20222;-63
2021/03/18 02:50:58;;;;;;;1.67;0.40;;;;;;;23.55;39.14;98955.16;5091377;28;20239;-63
2021/03/18 02:53:28;;;;;;;0.65;0.57;;;;;;;23.56;39.63;98964.84;5090870;28;20308;-64
2021/03/18 02:55:56;;;;;;;1.02;0.63;;;;;;;23.49;38.87;98966.47;5091013;28;20704;-63
2021/03/18 02:58:26;;;;;;;2.88;0.50;;;;;;;23.52;39.05;98966.16;5091007;28;20308;-64
2021/03/18 03:00:54;;;;;;;2.05;0.70;;;;;;;23.57;39.33;98964.69;5091485;28;20274;-62
2021/03/18 03:03:23;;;;;;;1.55;0.68;;;;;;;23.50;38.80;98974.31;5090914;28;20689;-62
2021/03/18 03:05:52;;;;;;;0.75;0.60;;;;;;;23.44;39.60;98973.09;5091087;28;20648;-63
2021/03/18 03:08:20;;;;;;;0.93;0.60;;;;;;;23.45;39.68;98976.63;5091026;28;20232;-63
2021/03/18 03:10:48;;;;;;;1.70;0.35;;;;;;;23.51;38.86;98969.81;5091241;28;20203;-63
2021/03/18 03:13:16;;;;;;;1.42;0.50;;;;;;;23.50;39.56;98968.13;5090838;28;20229;-64
2021/03/18 03:15:43;;;;;;;0.55;0.50;;;;;;;23.43;39.62;98967.91;5090609;28;20206;-62
2021/03/18 03:18:11;;;;;;;1.90;0.75;;;;;;;23.40;38.69;98962.91;5090655;28;20313;-63
2021/03/18 03:20:37;;;;;;;1.40;0.50;;;;;;;23.41;39.62;98975.22;5090829;28;20309;-63
2021/03/18 03:23:07;;;;;;;0.70;0.55;;;;;;;23.36;39.19;98967.66;5090812;28;20205;-63
2021/03/18 03:25:35;;;;;;;0.70;0.60;;;;;;;23.34;39.73;98969.66;5090701;28;20198;-62
2021/03/18 03:28:04;;;;;;;0.90;0.70;;;;;;;23.33;39.72;98973.34;5094470;28;20248;-64
2021/03/18 03:30:31;;;;;;;1.02;0.52;;;;;;;23.26;39.22;98975.78;5094817;28;20198;-64
2021/03/18 03:32:57;;;;;;;0.95;0.63;;;;;;;23.14;39.96;98974.31;5094577;28;20294;-63
2021/03/18 03:35:24;;;;;;;0.98;0.60;;;;;;;23.26;39.33;98972.25;5095065;28;20278;-64
2021/03/18 03:37:50;;;;;;;2.35;0.52;;;;;;;23.21;40.00;98974.53;5095115;28;20228;-63
2021/03/18 03:40:18;;;;;;;0.75;0.40;;;;;;;23.18;39.13;98975.69;5094693;28;20198;-63
2021/03/18 03:42:45;;;;;;;0.55;0.50;;;;;;;23.22;40.05;98973.56;5095403;28;20528;-64
2021/03/18 03:45:14;;;;;;;1.38;0.70;;;;;;;23.28;39.62;98980.94;5094706;28;20743;-63
2021/03/18 03:47:41;;;;;;;2.22;0.70;;;;;;;23.13;39.25;98977.13;5094433;28;20255;-64
2021/03/18 03:50:11;;;;;;;0.70;0.60;;;;;;;23.14;39.33;98982.31;5095138;28;20198;-63
2021/03/18 03:52:42;;;;;;;0.88;0.60;;;;;;;23.21;39.04;98980.72;5094580;28;20248;-62
2021/03/18 03:55:19;;;;;;;1.20;0.68;;;;;;;23.17;39.27;98974.00;5094461;28;20509;-63
2021/03/18 03:57:50;;;;;;;0.73;0.50;;;;;;;23.16;39.03;98977.66;5094282;28;20333;-64
2021/03/18 04:00:18;;;;;;;0.98;0.60;;;;;;;23.16;39.41;98972.31;5094265;28;20617;-64
2021/03/18 04:02:46;;;;;;;0.98;0.50;;;;;;;23.11;39.58;98977.28;5094390;28;20198;-63
2021/03/18 04:05:14;;;;;;;0.68;0.60;;;;;;;23.04;39.97;98984.19;5094713;28;20202;-63
2021/03/18 04:07:41;;;;;;;0.70;0.50;;;;;;;23.12;39.29;98980.81;5094715;28;20237;-64
2021/03/18 04:10:10;;;;;;;0.50;0.50;;;;;;;23.04;39.64;98982.34;5094347;28;20240;-63
2021/03/18 04:12:40;;;;;;;1.20;0.50;;;;;;;22.97;39.92;98986.59;5094553;28;20230;-62
2021/03/18 04:15:09;;;;;;;1.10;0.68;;;;;;;22.96;39.38;98981.41;5094495;28;20240;-63
2021/03/18 04:17:40;;;;;;;1.35;0.50;;;;;;;23.04;39.45;98989.50;5093939;28;20248;-64
2021/03/18 04:20:11;;;;;;;1.40;0.70;;;;;;;23.00;39.62;98977.44;5094169;28;20193;-60
2021/03/18 04:22:37;;;;;;;1.13;0.68;;;;;;;22.91;40.44;98971.19;5094296;28;20283;-62
2021/03/18 04:25:06;;;;;;;1.38;0.68;;;;;;;22.95;40.22;98975.25;5094292;28;20208;-62
2021/03/18 04:27:35;;;;;;;0.85;0.40;;;;;;;22.87;39.36;98978.66;5094326;28;20316;-64
2021/03/18 04:30:02;;;;;;;1.08;0.63;;;;;;;22.90;40.21;98973.03;5094296;28;20275;-63
2021/03/18 04:32:29;;;;;;;1.50;0.50;;;;;;;22.84;40.19;98968.28;5093718;28;20309;-63
2021/03/18 04:34:57;;;;;;;0.50;0.40;;;;;;;22.91;39.76;98972.06;5094241;28;20293;-64
2021/03/18 04:37:24;;;;;;;0.70;0.50;;;;;;;22.89;39.50;98975.84;5093553;28;20222;-63
2021/03/18 04:39:51;;;;;;;1.25;0.70;;;;;;;22.84;39.38;98973.63;5093566;28;20223;-63
2021/03/18 04:42:17;;;;;;;1.08;0.60;;;;;;;22.82;40.16;98983.63;5093957;28;20202;-62
2021/03/18 04:44:45;;;;;;;0.60;0.43;;;;;;;22.82;39.45;98985.44;5093519;28;20210;-65
2021/03/18 04:47:15;;;;;;;1.10;0.55;;;;;;;22.80;40.43;98982.94;5093348;28;20229;-65
2021/03/18 04:49:43;;;;;;;0.80;0.63;;;;;;;22.78;40.06;98984.06;5093577;28;20210;-63
2021/03/18 04:52:12;;;;;;;1.45;0.80;;;;;;;22.77;40.08;98987.72;5093617;28;20230;-62
2021/03/18 04:54:38;;;;;;;2.20;0.75;;;;;;;22.76;40.01;98975.38;5093802;28;20202;-64
2021/03/18 04:57:05;;;;;;;1.15;0.52;;;;;;;22.74;40.63;98994.19;5093918;28;20218;-62
2021/03/18 04:59:32;;;;;;;0.80;0.50;;;;;;;22.68;40.24;98978.75;5094044;28;20600;-62
2021/03/18 05:02:00;;;;;;;1.38;0.60;;;;;;;22.67;40.43;98977.09;5093740;28;20297;-62
2021/03/18 05:04:27;;;;;;;1.05;0.40;;;;;;;22.67;40.27;98971.78;5093652;28;20235;-59
2021/03/18 05:06:55;;;;;;;0.95;0.60;;;;;;;22.60;40.04;98973.34;5093627;28;20206;-64
2021/03/18 05:09:23;;;;;;;2.05;0.80;;;;;;;22.61;40.26;98964.38;5093408;28;20204;-63
2021/03/18 05:11:50;;;;;;;2.28;0.63;;;;;;;;;;5092984;28;20621;-63
2021/03/18 05:14:17;;;;;;;1.02;0.50;;;;;;;22.66;40.70;98970.91;5093276;28;20549;-63
2021/03/18 05:16:43;;;;;;;2.47;0.73;;;;;;;22.56;40.18;98971.97;5093222;28;20271;-63
2021/03/18 05:19:11;;;;;;;3.95;0.50;;;;;;;22.53;40.54;98976.63;5092993;28;20281;-63
2021/03/18 05:21:38;;;;;;;2.55;0.80;;;;;;;22.47;40.43;98977.19;5093008;28;20277;-64
2021/03/18 05:24:07;;;;;;;1.83;0.63;;;;;;;22.49;40.83;98977.88;5093130;28;20218;-64
2021/03/18 05:26:34;;;;;;;2.65;0.60;;;;;;;22.52;39.98;98982.91;5092703;28;20202;-63
2021/03/18 05:29:00;;;;;;;2.78;0.70;;;;;;;22.52;40.45;98982.09;5092752;28;20202;-63
2021/03/18 05:31:27;;;;;;;1.50;0.65;;;;;;;22.48;40.26;98980.69;5092645;28;20289;-61
2021/03/18 05:33:53;;;;;;;1.52;0.70;;;;;;;22.41;40.88;98976.94;5093196;28;20349;-61
2021/03/18 05:36:20;;;;;;;1.45;0.60;;;;;;;22.40;40.33;98973.44;5093272;28;20255;-62
2021/03/18 05:38:47;;;;;;;0.93;0.80;;;;;;;22.44;40.47;98972.16;5093131;28;20222;-63
2021/03/18 05:41:13;;;;;;;1.70;0.70;;;;;;;22.33;40.38;98975.00;5092771;28;20194;-63
2021/03/18 05:43:41;;;;;;;0.85;0.50;;;;;;;22.37;40.93;98981.72;5092753;28;20225;-61
2021/03/18 05:46:07;;;;;;;1.00;0.50;;;;;;;22.34;40.48;98976.69;5092694;28;20208;-63
2021/03/18 05:48:34;;;;;;;1.85;0.70;;;;;;;22.30;41.00;98975.28;5093050;28;20252;-65
2021/03/18 05:51:02;;;;;;;1.48;0.47;;;;;;;22.25;41.41;98980.19;5092182;28;20285;-63
2021/03/18 05:53:29;;;;;;;1.50;0.70;;;;;;;22.29;40.53;98981.63;5092165;28;20229;-62
2021/03/18 05:55:56;;;;;;;3.33;0.60;;;;;;;22.25;41.34;98983.72;5091988;28;20605;-63
2021/03/18 05:58:24;;;;;;;1.52;0.70;;;;;;;22.21;41.52;98982.31;5092118;28;20221;-62
2021/03/18 06:00:52;;;;;;;1.10;0.63;;;;;;;22.17;41.54;98980.94;5092205;28;20292;-62
2021/03/18 06:03:20;;;;;;;1.15;0.60;;;;;;;22.32;40.98;98984.00;5092273;28;20217;-62
2021/03/18 06:05:47;;;;;;;1.05;0.60;;;;;;;22.35;40.92;98979.22;5092082;28;20194;-62
2021/03/18 06:08:13;;;;;;;1.25;0.73;;;;;;;22.34;40.22;98985.50;5092060;28;20299;-62
2021/03/18 06:10:40;;;;;;;2.67;0.77;;;;;;;22.33;41.17;98981.19;5092243;28;20212;-63
2021/03/18 06:13:06;;;;;;;2.05;0.60;;;;;;;22.29;41.02;98979.78;5091985;28;20320;-64
2021/03/18 06:15:32;;;;;;;0.75;0.60;;;;;;;22.07;41.34;98978.28;5091834;28;20297;-68
2021/03/18 06:18:00;;;;;;;8.02;1.30;;;;;;;22.27;41.53;98986.22;5091739;28;20309;-63
2021/03/18 06:20:28;;;;;;;5.95;1.55;;;;;;;22.31;40.79;98979.63;5092037;28;20206;-65
2021/03/18 06:22:56;;;;;;;2.55;0.88;;;;;;;22.32;41.31;98984.00;5091619;28;20206;-69
2021/03/18 06:25:26;;;;;;;2.40;1.00;;;;;;;22.22;41.62;98988.50;5091769;28;20228;-63
2021/03/18 06:28:11;;;;;;;3.95;1.27;;;;;;;22.10;41.59;98982.47;5092253;28;20305;-63
2021/03/18 06:30:37;;;;;;;11.75;1.08;;;;;;;22.06;41.57;98989.09;5091739;28;20588;-64
2021/03/18 06:33:17;;;;;;;9.50;1.70;;;;;;;22.14;41.83;98983.88;5091943;28;20221;-64
2021/03/18 06:35:44;;;;;;;3.97;1.05;;;;;;;22.22;41.32;98983.16;5091674;28;20186;-64
2021/03/18 06:38:10;;;;;;;5.78;1.10;;;;;;;22.34;41.07;98982.03;5091392;28;20778;-64
2021/03/18 06:40:40;;;;;;;10.18;1.20;;;;;;;22.36;41.18;98974.72;5092118;28;20210;-63
2021/03/18 06:43:06;;;;;;;3.85;1.35;;;;;;;22.29;41.46;98978.97;5092023;28;20235;-57
2021/03/18 06:45:35;;;;;;;7.82;1.40;;;;;;;22.61;40.99;98977.69;5091219;28;20236;-60
2021/03/18 06:48:03;;;;;;;4.72;1.30;;;;;;;22.66;41.18;98986.06;5091295;28;20336;-62
2021/03/18 06:50:34;;;;;;;10.20;1.33;;;;;;;22.77;40.96;98972.56;5092030;28;20202;-60
2021/03/18 06:53:01;;;;;;;7.78;1.35;;;;;;;22.79;39.97;98969.75;5091615;28;20401;-60
2021/03/18 06:55:30;;;;;;;3.50;1.38;;;;;;;22.77;40.82;98972.56;5091822;28;20626;-62
2021/03/18 06:58:17;;;;;;;3.60;1.00;;;;;;;22.83;40.08;98971.97;5091424;28;20226;-61
2021/03/18 07:00:46;;;;;;;11.70;1.20;;;;;;;22.97;41.31;98973.28;5090905;28;20198;-64
2021/03/18 07:03:26;;;;;;;9.25;1.35;;;;;;;22.66;41.07;98986.06;5091494;28;20275;-62
2021/03/18 07:05:54;;;;;;;5.47;1.48;;;;;;;22.75;41.16;98990.53;5091321;28;20186;-62
2021/03/18 07:08:27;;;;;;;7.75;1.48;;;;;;;22.66;41.95;98988.75;5092036;28;20287;-61
2021/03/18 07:10:53;;;;;;;5.50;1.40;;;;;;;22.69;41.12;98981.28;5091427;28;20288;-63
2021/03/18 07:13:23;;;;;;;10.23;1.42;;;;;;;22.70;42.28;98990.16;5091826;28;20580;-60
2021/03/18 07:15:51;;;;;;;6.53;1.25;;;;;;;22.76;42.06;98981.53;5091072;28;20304;-62
2021/03/18 07:18:18;;;;;;;5.60;1.42;;;;;;;23.03;40.86;98982.50;5091443;28;20226;-63
2021/03/18 07:21:01;;;;;;;4.57;1.33;;;;;;;23.00;41.32;98982.78;5091577;28;20668;-64
2021/03/18 07:23:36;;;;;;;10.70;1.45;;;;;;;23.13;41.03;98983.28;5090230;28;20682;-63
2021/03/18 07:26:11;;;;;;;6.25;1.13;;;;;;;23.25;39.32;98987.44;5091939;28;20280;-63
2021/03/18 07:28:37;;;;;;;4.80;1.40;;;;;;;23.33;39.44;98985.81;5091457;28;20312;-62
2021/03/18 07:31:04;;;;;;;2.38;1.08;;;;;;;23.31;39.24;98982.47;5091600;28;20226;-63
2021/03/18 07:33:32;;;;;;;2.55;1.10;;;;;;;23.37;39.45;98979.22;5092026;28;20329;-62
2021/03/18 07:35:58;;;;;;;6.35;1.25;;;;;;;23.41;39.86;98977.88;5091356;28;20590;-62
2021/03/18 07:38:26;;;;;;;2.70;1.10;;;;;;;23.46;39.19;98978.28;5091571;28;20240;-63
2021/03/18 07:40:52;;;;;;;6.70;1.00;;;;;;;23.51;39.56;98972.47;5091482;28;20279;-63
2021/03/18 07:43:19;;;;;;;2.70;1.10;;;;;;;23.41;39.39;98980.56;5091394;28;20312;-64
2021/03/18 07:45:45;;;;;;;12.70;1.30;;;;;;;23.57;39.58;98975.38;5092179;28;20195;-65
2021/03/18 07:48:13;;;;;;;8.15;1.10;;;;;;;23.68;39.29;98976.09;5090779;28;20221;-64
2021/03/18 07:50:40;;;;;;;2.40;0.98;;;;;;;23.74;38.70;98970.16;5091338;28;20202;-63
2021/03/18 07:53:10;;;;;;;4.72;1.17;;;;;;;23.79;39.01;98965.19;5091430;28;20218;-64
2021/03/18 07:55:38;;;;;;;4.70;0.80;;;;;;;23.76;39.08;98968.16;5092245;28;20244;-65
2021/03/18 07:58:04;;;;;;;2.90;1.13;;;;;;;23.89;38.87;98963.28;5091188;28;20225;-61
2021/03/18 08:00:32;;;;;;;2.50;0.95;;;;;;;23.82;38.50;98968.41;5091194;28;20293;-65
2021/03/18 08:03:27;;;;;;;6.00;1.13;;;;;;;23.87;39.38;98969.78;5091018;28;20279;-62
2021/03/18 08:05:54;;;;;;;4.07;1.55;;;;;;;23.54;35.00;98967.66;5091493;28;20320;-63
2021/03/18 08:08:36;;;;;;;5.05;1.10;;;;;;;24.06;36.80;98968.72;5090989;28;20704;-64
2021/03/18 08:11:06;;;;;;;3.72;0.90;;;;;;;24.42;36.94;98963.25;5091600;28;20286;-68
2021/03/18 08:13:33;;;;;;;8.18;1.17;;;;;;;24.59;37.36;98966.88;5093945;28;20221;-62
2021/03/18 08:16:00;;;;;;;3.83;1.00;;;;;;;24.71;37.36;98963.75;5095292;28;20226;-64
2021/03/18 08:18:44;;;;;;;5.90;0.90;;;;;;;24.77;37.73;98961.41;5095344;28;20281;-64
2021/03/18 08:21:13;;;;;;;3.45;1.02;;;;;;;24.88;36.58;98958.41;5095746;28;20269;-64
2021/03/18 08:23:49;;;;;;;1.20;0.80;;;;;;;25.00;37.62;98962.47;5095516;28;20202;-62
2021/03/18 08:26:48;;;;;;;2.42;1.00;;;;;;;25.06;37.15;98958.28;5095698;28;20233;-65
2021/03/18 08:29:25;;;;;;;3.00;0.90;;;;;;;25.17;36.93;98957.97;5094979;28;20200;-65
2021/03/18 08:31:55;;;;;;;4.00;1.00;;;;;;;25.29;37.53;98955.84;5094992;28;20471;-64
2021/03/18 08:34:40;;;;;;;1.55;0.68;;;;;;;25.29;37.67;98947.81;5095045;28;20730;-62
2021/03/18 08:37:07;;;;;;;7.30;0.80;;;;;;;25.33;37.81;98949.19;5095739;28;20217;-62
2021/03/18 08:39:47;;;;;;;2.13;0.88;;;;;;;25.42;37.35;98952.69;5095553;28;20202;-63
2021/03/18 08:42:49;;;;;;;4.25;1.05;;;;;;;25.51;36.72;98950.84;5095039;28;20189;-64
2021/03/18 08:45:38;;;;;;;2.30;0.77;;;;;;;25.24;37.06;98952.81;5091237;28;20220;-59
2021/03/18 08:48:13;;;;;;;3.63;1.13;;;;;;;25.25;37.22;98943.78;5094751;28;20283;-63
2021/03/18 08:50:54;;;;;;;2.08;0.90;;;;;;;25.40;37.23;98942.16;5095438;28;20556;-64
2021/03/18 08:53:39;;;;;;;2.20;1.00;;;;;;;25.46;37.03;98945.97;5094736;28;20206;-64
2021/03/18 08:56:07;;;;;;;11.07;0.70;;;;;;;25.42;37.14;98940.13;5094566;28;20297;-63
2021/03/18 08:58:55;;;;;;;4.50;0.90;;;;;;;25.59;37.61;98945.47;5094965;28;20222;-65
2021/03/18 09:01:24;;;;;;;2.60;1.33;;;;;;;25.63;36.75;98936.09;5094409;28;20206;-62
2021/03/18 09:03:56;;;;;;;3.65;0.95;;;;;;;25.67;36.73;98938.28;5093755;28;20739;-64
2021/03/18 09:06:22;;;;;;;1.90;0.90;;;;;;;25.73;36.83;98931.41;5094177;28;20202;-65
2021/03/18 09:08:49;;;;;;;1.63;0.80;;;;;;;25.71;37.10;98936.09;5093216;28;20261;-65
2021/03/18 09:11:22;;;;;;;3.33;0.88;;;;;;;25.69;37.08;98934.59;5093302;28;20288;-64
2021/03/18 09:13:48;;;;;;;4.03;0.70;;;;;;;25.75;37.12;98940.13;5094308;28;20240;-63
2021/03/18 09:16:20;;;;;;;3.08;0.90;;;;;;;25.79;36.67;98941.44;5093969;28;20202;-63
2021/03/18 09:18:48;;;;;;;2.28;0.90;;;;;;;25.79;36.88;98937.94;5093883;28;20342;-64
2021/03/18 09:21:14;;;;;;;3.08;0.68;;;;;;;25.83;36.84;98931.22;5093888;28;20202;-64
2021/03/18 09:23:43;;;;;;;5.50;0.90;;;;;;;25.79;37.36;98936.09;5093517;28;20565;-65
2021/03/18 09:26:11;;;;;;;1.48;0.60;;;;;;;25.85;37.13;98935.41;5093379;28;20206;-66
2021/03/18 09:28:41;;;;;;;2.70;0.80;;;;;;;25.84;37.57;98928.38;5093248;28;20222;-61
2021/03/18 09:31:08;;;;;;;1.75;0.60;;;;;;;25.65;37.60;98929.59;5093270;28;20206;-65
2021/03/18 09:33:36;;;;;;;2.10;0.70;;;;;;;25.79;37.71;98928.03;5093250;28;20580;-65
2021/03/18 09:36:20;;;;;;;5.25;0.60;;;;;;;25.84;37.83;98922.19;5093331;28;20542;-65
2021/03/18 09:38:55;;;;;;;3.90;1.13;;;;;;;25.90;37.58;98934.09;5092752;28;20222;-65
2021/03/18 09:41:24;;;;;;;3.45;0.70;;;;;;;25.83;37.71;98926.72;5093013;28;20190;-63
2021/03/18 09:44:00;;;;;;;1.50;0.60;;;;;;;25.79;37.77;98925.38;5093182;28;20213;-66
2021/03/18 09:46:26;;;;;;;4.70;0.80;;;;;;;25.80;38.11;98921.69;5092915;28;20243;-64
2021/03/18 09:48:53;;;;;;;5.60;0.85;;;;;;;26.00;37.61;98921.34;5093080;28;20229;-62
2021/03/18 09:51:22;;;;;;;2.97;0.77;;;;;;;26.12;37.35;98924.50;5092713;28;20735;-65
2021/03/18 09:53:56;;;;;;;0.60;0.50;;;;;;;26.15;37.60;98922.31;5092400;28;20232;-64
2021/03/18 09:56:23;;;;;;;4.53;0.70;;;;;;;26.17;37.65;98922.97;5092329;28;20186;-63
2021/03/18 09:58:50;;;;;;;1.33;0.73;;;;;;;26.26;37.22;98913.03;5092418;28;20684;-63
2021/03/18 10:01:18;;;;;;;3.65;0.80;;;;;;;26.30;36.99;98922.44;5091940;28;20669;-62
2021/03/18 10:03:55;;;;;;;2.00;0.85;;;;;;;26.35;37.78;98911.19;5092179;28;20263;-60
2021/03/18 10:06:31;;;;;;;3.15;0.70;;;;;;;26.36;37.42;98910.16;5092225;28;20210;-54
2021/03/18 10:09:16;;;;;;;1.90;0.70;;;;;;;26.43;37.14;98908.47;5092184;28;20221;-58
2021/03/18 10:11:43;;;;;;;2.55;0.60;;;;;;;26.49;36.59;98904.25;5092573;28;20186;-62
2021/03/18 10:14:10;;;;;;;2.28;0.68;;;;;;;26.58;37.79;98898.66;5092037;28;20295;-60
2021/03/18 10:16:37;;;;;;;3.22;0.60;;;;;;;26.59;37.11;98902.19;5091805;28;20194;-57
2021/03/18 10:19:05;;;;;;;3.00;0.60;;;;;;;26.61;37.02;98896.63;5091848;28;20222;-60
2021/03/18 10:21:33;;;;;;;1.25;0.40;;;;;;;26.67;36.75;98890.59;5091473;28;20206;-60
2021/03/18 10:23:59;;;;;;;3.03;0.80;;;;;;;26.64;37.41;98891.78;5092024;28;20198;-60
2021/03/18 10:26:27;;;;;;;2.05;0.70;;;;;;;26.59;36.21;98892.28;5090857;28;20205;-58
2021/03/18 10:29:00;;;;;;;1.00;0.60;;;;;;;26.36;37.17;98891.41;5091489;28;20713;-62
2021/03/18 10:31:27;;;;;;;3.70;0.60;;;;;;;26.48;37.23;98881.09;5091947;28;20202;-63
2021/03/18 10:33:54;;;;;;;2.08;0.70;;;;;;;26.63;37.88;98894.59;5091831;28;20696;-62
2021/03/18 10:36:33;;;;;;;1.08;0.60;;;;;;;26.62;37.65;98887.59;5091778;28;20194;-58
2021/03/18 10:39:01;;;;;;;4.32;0.63;;;;;;;26.59;37.23;98883.41;5091229;28;20229;-59
2021/03/18 10:41:27;;;;;;;2.05;0.77;;;;;;;26.63;37.84;98881.19;5091739;28;20202;-61
2021/03/18 10:43:54;;;;;;;1.75;0.65;;;;;;;26.63;37.42;98883.88;5091587;28;20278;-62
2021/03/18 10:46:27;;;;;;;2.80;0.80;;;;;;;26.62;37.02;98876.88;5091342;28;20270;-61
2021/03/18 10:48:54;;;;;;;3.25;0.65;;;;;;;26.55;37.67;98880.25;5092009;28;20226;-61
2021/03/18 10:51:21;;;;;;;1.70;0.68;;;;;;;26.59;37.00;98881.53;5091665;28;20202;-60
2021/03/18 10:53:51;;;;;;;1.02;0.50;;;;;;;26.57;37.70;98875.53;5091581;28;20275;-61
2021/03/18 10:56:23;;;;;;;1.65;0.57;;;;;;;26.57;37.18;98872.84;5091268;28;20526;-65
2021/03/18 10:58:51;;;;;;;1.83;0.60;;;;;;;26.29;37.55;98879.72;5091135;28;20226;-67
2021/03/18 11:01:21;;;;;;;2.05;0.50;;;;;;;26.11;36.30;98880.78;5091207;28;20764;-66
2021/03/18 11:03:48;;;;;;;0.40;0.32;;;;;;;26.08;36.67;98875.78;5091657;28;20193;-66
2021/03/18 11:06:16;;;;;;;0.65;0.40;;;;;;;25.95;36.89;98875.47;5091184;28;20227;-66
2021/03/18 11:08:44;;;;;;;1.05;0.60;;;;;;;25.83;37.19;98873.16;5091032;28;20293;-67
2021/03/18 11:11:16;;;;;;;2.65;0.30;;;;;;;25.76;37.73;98869.47;5091372;28;20210;-67
2021/03/18 11:13:43;;;;;;;0.80;0.50;;;;;;;25.93;37.71;98864.06;5091110;28;20221;-62
2021/03/18 11:16:10;;;;;;;0.95;0.40;;;;;;;26.03;38.28;98864.75;5091004;28;20198;-62
2021/03/18 11:18:42;;;;;;;8.30;0.82;;;;;;;26.16;38.16;98856.13;5091034;28;20222;-68
2021/03/18 11:21:24;;;;;;;7.47;0.90;;;;;;;26.21;38.20;98862.66;5091375;28;20206;-61
2021/03/18 11:23:51;;;;;;;3.03;0.60;;;;;;;26.30;37.79;98857.25;5091236;28;20194;-63
2021/03/18 11:26:21;;;;;;;4.78;0.68;;;;;;;26.31;38.17;98854.41;5091009;28;20283;-62
2021/03/18 11:28:53;;;;;;;2.65;0.52;;;;;;;26.38;37.45;98849.19;5090859;28;20309;-60
2021/03/18 11:31:22;;;;;;;1.77;0.70;;;;;;;26.41;38.44;98843.44;5090781;28;20240;-62
2021/03/18 11:33:48;;;;;;;2.30;0.50;;;;;;;26.41;37.61;98840.75;5091054;28;20677;-62
2021/03/18 11:36:14;;;;;;;2.10;0.60;;;;;;;26.46;37.80;98834.88;5091198;28;20238;-63
2021/03/18 11:38:40;;;;;;;2.28;0.50;;;;;;;26.41;37.62;98832.72;5090713;28;20325;-59
2021/03/18 11:41:07;;;;;;;1.75;0.50;;;;;;;26.41;37.56;98835.41;5090625;28;20206;-62
2021/03/18 11:43:34;;;;;;;1.63;0.60;;;;;;;26.45;38.01;98834.06;5091400;28;20214;-62
2021/03/18 11:46:01;;;;;;;1.98;0.50;;;;;;;26.54;37.68;98832.97;5091228;28;20690;-63